Terminal Aerodrome Forecast
Issued by NWS Pocatello, ID

Home | Current Version | Previous Version | Text Only | Print | Product List | Glossary On
Versions: 1 2 3 4 5 6 7 8 9 10 11 12 13 14 15 16 17 18 19 20 21 22 23 24 25 26 27 28 29 30 31 32
000
FTUS45 KPIH 042138 AAB
TAFIDA
TAF AMD
KIDA 042138Z 0422/0518 22022G32KT 2SM -SN SCT015 OVC020
      WS010/23050KT
     FM050100 21024G34KT 3SM -SN BLSN SCT005 OVC010
     FM051000 25026G36KT P6SM VCSH SCT015 BKN040
     FM051400 24012KT P6SM SCT020 BKN050=

USA.gov is the U.S. government's official web portal to all federal, state and local government web resources and services.